Data for 07/13/2007

Time Sea-Level Adjusted Pressure Absolute Pressure Temperature Relative Humidity Dew Point   
(mb) (inHg) (mb) (inHg) (C) (F) (%) (C) (F)
00:05 1023 30.21 852 25.16 22.5 72.5 31 4.7 40.5
00:10 1023 30.21 852 25.16 22.3 72.1 31 4.3 39.8
00:15 1023 30.21 852 25.16 22.2 72 31 4.5 40.1
00:20 1023 30.21 852 25.16 21.8 71.2 35 5.7 42.2
00:25 1023 30.21 852 25.16 20.9 69.6 37 5.7 42.3
00:30 1023 30.21 852 25.16 20.6 69 37 5.6 42.1
00:35 1023 30.21 852 25.16 20.4 68.6 36 5.1 41.1
00:40 1023 30.21 852 25.16 20.5 68.9 35 4.8 40.6
00:45 1023 30.21 852 25.16 20.5 69 35 4.9 40.8
00:50 1023 30.21 852 25.16 20.5 68.8 35 4.8 40.6
00:55 1023 30.21 852 25.16 20.7 69.3 34 4.4 39.9
01:00 1023 30.21 852 25.16 20.8 69.4 34 4.4 40
01:05 1023 30.21 852 25.16 20.8 69.5 34 4.5 40.2
01:10 1023 30.21 852 25.16 20.6 69 35 4.6 40.4
01:15 1023 30.21 852 25.16 20.4 68.6 35 4.5 40.2
01:20 1023 30.21 852 25.16 20.3 68.5 35 4.5 40.1
01:25 1023 30.21 852 25.16 20.2 68.3 37 5 41
01:30 1023 30.21 852 25.16 19.9 67.9 37 5 41.1
01:35 1023 30.21 852 25.16 19.9 67.7 37 5 41.1
01:40 1023 30.21 852 25.16 19.9 67.8 37 4.9 40.8
01:45 1023 30.21 852 25.16 20 68.1 37 5.2 41.3
01:50 1023 30.21 852 25.16 19.7 67.4 40 5.9 42.7
01:55 1023 30.21 852 25.16 19.1 66.4 41 5.7 42.2
02:00 1023 30.21 852 25.16 18.9 66.1 42 5.7 42.3
02:05 1023 30.21 852 25.16 18.7 65.6 43 5.9 42.6
02:10 1023 30.21 852 25.16 18.7 65.6 42 5.7 42.3
02:15 1023 30.21 852 25.16 18.5 65.3 43 5.7 42.3
02:20 1023 30.21 852 25.16 18.5 65.2 42 5.5 41.9
02:25 1023 30.21 852 25.16 18.6 65.4 43 5.8 42.4
02:30 1022 30.18 852 25.16 18.2 64.7 45 6.1 42.9
02:35 1022 30.18 852 25.16 18 64.4 44 5.8 42.4
02:40 1022 30.18 852 25.16 18.2 64.8 43 5.6 42.1
02:45 1022 30.18 852 25.16 18.2 64.7 43 5.7 42.2
02:50 1022 30.18 852 25.16 18.3 65 43 5.5 42
02:55 1023 30.21 852 25.16 18.3 65 42 5.3 41.5
03:00 1023 30.21 852 25.16 18.7 65.7 40 4.9 40.9
03:05 1022 30.18 852 25.16 19.1 66.3 39 5 41
03:10 1023 30.21 852 25.16 19.1 66.4 40 5.5 41.9
03:15 1023 30.21 852 25.16 18.8 65.8 42 5.6 42.2
03:20 1023 30.21 852 25.16 18.5 65.3 43 5.8 42.4
03:25 1023 30.21 852 25.16 18.4 65.2 42 5.6 42
03:30 1023 30.21 852 25.16 18.5 65.2 41 5.1 41.3
03:35 1023 30.21 852 25.16 18.6 65.5 41 5.3 41.6
03:40 1023 30.21 852 25.16 18.5 65.4 42 5.4 41.8
03:45 1023 30.21 852 25.16 18.3 64.9 43 5.7 42.3
03:50 1023 30.21 852 25.16 18 64.4 44 5.8 42.5
03:55 1023 30.21 852 25.16 17.8 64.1 45 5.8 42.4
04:00 1023 30.21 852 25.16 17.8 64.1 44 5.4 41.8
04:05 1023 30.21 852 25.16 18.3 64.9 43 5.5 41.9
04:10 1023 30.21 852 25.16 18.2 64.7 44 5.8 42.4
04:15 1023 30.21 852 25.16 17.9 64.2 46 6.2 43.2
04:20 1023 30.21 852 25.16 17.6 63.6 47 6.3 43.4
04:25 1023 30.21 852 25.16 17.7 63.8 45 5.8 42.5
04:30 1023 30.21 852 25.16 17.7 63.8 46 6 42.8
04:35 1023 30.21 852 25.16 17.5 63.5 46 5.7 42.3
04:40 1023 30.21 852 25.16 17.3 63.1 48 6.1 43.1
04:45 1023 30.21 852 25.16 17.1 62.8 48 6.1 43
04:50 1023 30.21 852 25.16 17 62.5 49 6.1 43.1
04:55 1023 30.21 852 25.16 17.1 62.7 48 6.2 43.1
05:00 1023 30.21 852 25.16 17.2 63 48 6.2 43.1
05:05 1023 30.21 852 25.16 17.3 63.2 48 6.4 43.5
05:10 1023 30.21 852 25.16 17.2 63 47 5.8 42.5
05:15 1023 30.21 852 25.16 17.3 63.2 46 5.9 42.5
05:20 1023 30.21 852 25.16 17.4 63.4 46 5.7 42.3
05:25 1023 30.21 852 25.16 17.3 63.1 47 6.1 42.9
05:30 1023 30.21 852 25.16 17.1 62.8 48 6.2 43.2
05:35 1023 30.21 853 25.19 17 62.6 49 6.2 43.1
05:40 1023 30.21 853 25.19 17 62.6 49 6.2 43.2
05:45 1024 30.24 853 25.19 17.2 62.9 51 7.1 44.9
05:50 1024 30.24 853 25.19 17.5 63.4 48 6.4 43.5
05:55 1024 30.24 853 25.19 17.5 63.5 48 6.3 43.4
06:00 1024 30.24 853 25.19 17.1 62.8 49 6.5 43.8
06:05 1024 30.24 853 25.19 16.6 62 54 7.3 45.2
06:10 1024 30.24 853 25.19 16.3 61.3 53 6.7 44.1
06:15 1024 30.24 853 25.19 16.5 61.7 52 6.7 44.1
06:20 1024 30.24 853 25.19 17.1 62.8 49 6.3 43.4
06:25 1024 30.24 853 25.19 17.2 63 51 7 44.7
06:30 1024 30.24 853 25.19 16.9 62.4 50 6.4 43.6
06:35 1024 30.24 853 25.19 17.2 62.9 49 6.5 43.6
06:40 1024 30.24 853 25.19 17.1 62.8 50 6.6 43.9
06:45 1024 30.24 853 25.19 17.1 62.7 50 6.5 43.8
06:50 1024 30.24 853 25.19 17.2 62.9 50 6.7 44.1
06:55 1024 30.24 853 25.19 17.3 63.1 50 6.9 44.5
07:00 1024 30.24 853 25.19 17.2 63 51 7.1 44.8
07:05 1024 30.24 853 25.19 17.3 63.2 51 7.3 45.2
07:10 1024 30.24 853 25.19 17.3 63.2 52 7.5 45.5
07:15 1024 30.24 853 25.19 17.3 63.1 52 7.3 45.1
07:20 1024 30.24 853 25.19 17.5 63.6 50 7 44.6
07:25 1024 30.24 853 25.19 17.9 64.2 49 7.2 45
07:30 1024 30.24 853 25.19 18.3 64.9 51 8.1 46.6
07:35 1024 30.24 853 25.19 18.5 65.2 47 7.1 44.8
07:40 1024 30.24 853 25.19 18.7 65.6 48 7.5 45.5
07:45 1024 30.24 853 25.19 18.8 65.9 46 7.2 45
07:50 1024 30.24 853 25.19 19.2 66.5 46 7.5 45.5
07:55 1024 30.24 853 25.19 19.5 67.2 47 8 46.4
08:00 1024 30.24 853 25.19 19.7 67.5 44 7.4 45.3
08:05 1024 30.24 853 25.19 20 68 46 8.1 46.6
08:10 1024 30.24 853 25.19 20.2 68.3 51 9.7 49.5
08:15 1024 30.24 853 25.19 20.3 68.5 46 8.4 47
08:20 1024 30.24 853 25.19 20.3 68.5 48 9.2 48.5
08:25 1024 30.24 853 25.19 20.3 68.6 52 10.4 50.7
08:30 1024 30.24 853 25.19 20.6 69.1 48 9.4 48.9
08:35 1024 30.24 853 25.19 20.9 69.6 50 10.1 50.2
08:40 1024 30.24 853 25.19 21 69.9 48 9.7 49.4
08:45 1024 30.24 853 25.19 21.2 70.1 47 9.7 49.4
08:50 1024 30.24 853 25.19 21.8 71.2 46 9.8 49.7
08:55 1024 30.24 853 25.19 22.3 72.2 41 8.7 47.7
09:00 1024 30.24 853 25.19 22.8 73 37 7.6 45.7
09:05 1024 30.24 853 25.19 22.8 73 40 8.6 47.5
09:10 1024 30.24 853 25.19 22.5 72.5 41 8.9 48.1
09:15 1024 30.24 853 25.19 22.3 72.1 41 8.6 47.5
09:20 1024 30.24 853 25.19 22.9 73.3 39 8.4 47.2
09:25 1024 30.24 853 25.19 23.5 74.3 36 7.9 46.3
09:30 1024 30.24 853 25.19 23.7 74.6 37 8.5 47.2
09:35 1024 30.24 853 25.19 23.7 74.7 35 7.4 45.3
09:40 1024 30.24 853 25.19 24.4 75.8 37 8.9 48
09:45 1024 30.24 853 25.19 25 77 32 7.2 45
09:50 1024 30.24 853 25.19 25.1 77.2 31 6.9 44.5
09:55 1024 30.24 853 25.19 25.3 77.6 31 7.4 45.2
10:00 1024 30.24 853 25.19 25.6 78 31 7.3 45.2
10:05 1024 30.24 853 25.19 26.3 79.3 30 7.6 45.8
10:10 1024 30.24 853 25.19 26.5 79.7 31 8.1 46.5
10:15 1024 30.24 853 25.19 26.8 80.3 29 7.7 45.9
10:20 1024 30.24 853 25.19 26.4 79.6 30 7.6 45.6
10:25 1024 30.24 853 25.19 26.5 79.7 29 7.4 45.3
10:30 1024 30.24 853 25.19 25.8 78.5 32 8 46.4
10:35 1024 30.24 853 25.19 25.5 77.9 31 7.6 45.6
10:40 1024 30.24 853 25.19 25.6 78 32 8.1 46.6
10:45 1024 30.24 853 25.19 25.6 78.1 31 7.6 45.7
10:50 1024 30.24 853 25.19 26.1 78.9 32 8.4 47.1
10:55 1024 30.24 853 25.19 27.2 80.9 31 9 48.2
11:00 1024 30.24 853 25.19 27.4 81.2 31 9.2 48.6
11:05 1024 30.24 853 25.19 26.5 79.6 33 9.1 48.4
11:10 1024 30.24 853 25.19 26.3 79.4 31 8.1 46.5
11:15 1024 30.24 853 25.19 26.2 79.1 32 8.5 47.2
11:20 1024 30.24 853 25.19 27.2 81 28 7.6 45.7
11:25 1024 30.24 853 25.19 27.9 82.2 30 9.1 48.4
11:30 1024 30.24 853 25.19 27 80.6 31 8.7 47.7
11:35 1024 30.24 853 25.19 26.8 80.3 31 8.5 47.4
11:40 1024 30.24 853 25.19 26.7 80.1 30 8.2 46.8
11:45 1023 30.21 853 25.19 27.4 81.3 28 7.8 46.1
11:50 1023 30.21 853 25.19 28.1 82.5 28 8 46.3
11:55 1023 30.21 853 25.19 27.7 81.9 28 8.1 46.6
12:00 1023 30.21 853 25.19 28.5 83.3 27 7.8 46
12:05 1023 30.21 853 25.19 29.4 84.8 26 8 46.3
12:10 1023 30.21 853 25.19 29.6 85.3 24 7.2 45
12:15 1023 30.21 853 25.19 29.8 85.7 25 8.1 46.6
12:20 1023 30.21 853 25.19 29.2 84.5 26 7.8 46.1
12:25 1023 30.21 852 25.16 29.1 84.3 25 7.4 45.4
12:30 1023 30.21 852 25.16 29 84.1 26 7.9 46.2
12:35 1023 30.21 852 25.16 29 84.2 27 8.3 46.9
12:40 1023 30.21 852 25.16 29.2 84.6 26 7.9 46.3
12:45 1023 30.21 852 25.16 30 86 24 7.5 45.5
12:50 1023 30.21 852 25.16 30.4 86.7 23 7.6 45.7
12:55 1023 30.21 852 25.16 30.3 86.5 24 7.6 45.6
13:00 1023 30.21 852 25.16 31.2 88.1 22 7.5 45.5
13:05 1023 30.21 852 25.16 31.3 88.4 22 7.5 45.5
13:10 1023 30.21 852 25.16 31.5 88.8 22 7.5 45.5
13:15 1023 30.21 852 25.16 30.6 87.1 23 7.5 45.4
13:20 1023 30.21 852 25.16 31.1 88 22 6.9 44.5
13:25 1023 30.21 852 25.16 31.7 89 22 7.5 45.6
13:30 1023 30.21 852 25.16 32.6 90.7 21 7.9 46.2
13:35 1023 30.21 852 25.16 33 91.3 20 7.1 44.8
13:40 1023 30.21 852 25.16 32.4 90.2 21 7.7 45.8
13:45 1023 30.21 852 25.16 32.2 90 22 8 46.4
13:50 1023 30.21 852 25.16 32.4 90.3 21 7.7 45.8
13:55 1023 30.21 852 25.16 32.1 89.8 21 7.3 45.2
14:00 1023 30.21 852 25.16 32.3 90.1 21 7.4 45.3
14:05 1023 30.21 852 25.16 32.7 90.8 19 6.2 43.2
14:10 1023 30.21 852 25.16 33.1 91.5 19 6.6 43.9
14:15 1023 30.21 852 25.16 33.3 91.9 20 7.4 45.2
14:20 1022 30.18 852 25.16 32.9 91.2 19 6.5 43.7
14:25 1022 30.18 852 25.16 32.8 91.1 19 6.7 44
14:30 1022 30.18 852 25.16 33.4 92.2 18 6.4 43.5
14:35 1022 30.18 852 25.16 33.4 92 18 6.4 43.6
14:40 1022 30.18 852 25.16 32.4 90.3 19 6.2 43.1
14:45 1022 30.18 852 25.16 32.7 90.8 17 4.9 40.9
14:50 1022 30.18 851 25.13 32.8 91 19 6.3 43.3
14:55 1022 30.18 851 25.13 32.4 90.2 18 5.6 42
15:00 1022 30.18 851 25.13 32.2 89.9 19 6 42.8
15:05 1022 30.18 851 25.13 32.6 90.7 19 6.2 43.2
15:10 1022 30.18 851 25.13 32.6 90.7 19 6.7 44.1
15:15 1022 30.18 851 25.13 32.4 90.3 19 6.2 43.2
15:20 1022 30.18 851 25.13 32.6 90.6 20 7 44.5
15:25 1022 30.18 851 25.13 32.8 91 21 8.1 46.5
15:30 1022 30.18 851 25.13 33.1 91.6 19 6.9 44.4
15:35 1022 30.18 851 25.13 32.7 90.8 20 6.8 44.3
15:40 1022 30.18 851 25.13 32.8 91.1 19 6.2 43.2
15:45 1022 30.18 851 25.13 33.6 92.5 18 6.5 43.8
15:50 1022 30.18 851 25.13 33.5 92.4 18 6.3 43.4
15:55 1022 30.18 851 25.13 33.6 92.5 17 5.4 41.7
16:00 1022 30.18 851 25.13 33.4 92.2 19 7 44.7
16:05 1022 30.18 851 25.13 33.5 92.4 19 7.1 44.9
16:10 1022 30.18 851 25.13 32.4 90.2 21 7.3 45.2
16:15 1022 30.18 851 25.13 32 89.6 18 5.4 41.7
16:20 1022 30.18 851 25.13 32.1 89.7 19 6.3 43.3
16:25 1022 30.18 851 25.13 33.1 91.6 18 6.2 43.1
16:30 1022 30.18 851 25.13 33.6 92.5 17 5.8 42.4
16:35 1022 30.18 851 25.13 32.8 91.1 19 6.6 43.9
16:40 1022 30.18 851 25.13 33.2 91.8 18 6.4 43.6
16:45 1022 30.18 851 25.13 33 91.3 21 8.2 46.8
16:50 1022 30.18 851 25.13 32.6 90.7 18 5.7 42.3
16:55 1022 30.18 851 25.13 32.9 91.2 18 6.2 43.1
17:00 1022 30.18 851 25.13 33 91.3 18 6.3 43.3
17:05 1022 30.18 851 25.13 33.2 91.7 19 6.9 44.4
17:10 1022 30.18 851 25.13 33 91.4 19 7 44.7
17:15 1022 30.18 851 25.13 32.8 91.1 18 5.9 42.6
17:20 1022 30.18 851 25.13 32.9 91.2 16 4.5 40
17:25 1022 30.18 851 25.13 33.4 92 17 5.5 42
17:30 1022 30.18 851 25.13 33.2 91.8 18 5.8 42.4
17:35 1021 30.15 851 25.13 32.6 90.7 18 5.6 42.1
17:40 1021 30.15 851 25.13 32.4 90.3 17 4.7 40.5
17:45 1021 30.15 851 25.13 32.2 90 18 5 41.1
17:50 1021 30.15 851 25.13 31.7 89 19 5.9 42.6
17:55 1021 30.15 851 25.13 31.2 88.2 19 5.1 41.1
18:00 1021 30.15 851 25.13 31.3 88.4 19 5 41.1
18:05 1021 30.15 851 25.13 31.4 88.5 18 4.9 40.8
18:10 1021 30.15 851 25.13 31.3 88.4 19 5.3 41.5
18:15 1021 30.15 851 25.13 30.9 87.5 18 4.5 40.2
18:20 1021 30.15 851 25.13 30.6 87.1 20 5.7 42.2
18:25 1021 30.15 851 25.13 30.6 87.1 20 5.4 41.6
18:30 1021 30.15 851 25.13 30.8 87.5 20 5.9 42.6
18:35 1021 30.15 851 25.13 30.7 87.2 21 6.3 43.3
18:40 1021 30.15 851 25.13 30.5 86.8 22 6.7 44.1
18:45 1021 30.15 851 25.13 30.5 86.9 23 7.1 44.8
18:50 1021 30.15 851 25.13 30.4 86.7 24 7.8 46.1
18:55 1021 30.15 851 25.13 30.1 86.3 23 6.8 44.3
19:00 1021 30.15 850 25.1 30 86 23 7.2 45
19:05 1021 30.15 850 25.1 29.9 85.8 24 7.3 45.2
19:10 1021 30.15 850 25.1 29.8 85.6 24 7.1 44.8
19:15 1021 30.15 851 25.13 29.6 85.4 24 7.2 44.9
19:20 1021 30.15 851 25.13 29.3 84.8 26 8.3 47
19:25 1021 30.15 851 25.13 28.9 84 27 8.1 46.6
19:30 1021 30.15 851 25.13 28.8 83.8 27 8.3 46.9
19:35 1021 30.15 851 25.13 28.7 83.6 26 7.4 45.3
19:40 1021 30.15 851 25.13 28.6 83.5 25 7 44.7
19:45 1021 30.15 851 25.13 28.6 83.4 26 7.5 45.6
19:50 1021 30.15 851 25.13 28.4 83.2 27 7.7 45.9
19:55 1021 30.15 851 25.13 28.3 82.9 27 7.9 46.2
20:00 1021 30.15 851 25.13 28 82.3 29 8.5 47.3
20:05 1021 30.15 851 25.13 27.7 81.9 29 8.1 46.7
20:10 1021 30.15 851 25.13 27.7 81.8 29 8.2 46.8
20:15 1021 30.15 851 25.13 27.5 81.6 29 8.3 47
20:20 1021 30.15 851 25.13 27.3 81.2 29 8.3 46.9
20:25 1021 30.15 850 25.1 27.1 80.8 31 8.6 47.4
20:30 1021 30.15 850 25.1 26.9 80.5 31 8.6 47.4
20:35 1021 30.15 850 25.1 26.8 80.2 31 8.4 47.2
20:40 1021 30.15 850 25.1 26.6 79.9 32 8.6 47.5
20:45 1021 30.15 851 25.13 26.3 79.4 32 8.7 47.7
20:50 1021 30.15 851 25.13 26.2 79.1 32 8.3 46.9
20:55 1022 30.18 851 25.13 26.2 79.1 32 8.5 47.2
21:00 1022 30.18 851 25.13 26.1 78.9 32 8.3 47
21:05 1022 30.18 851 25.13 26.1 78.9 32 8.3 47
21:10 1022 30.18 851 25.13 26 78.7 32 8.2 46.7
21:15 1022 30.18 851 25.13 25.9 78.6 32 8 46.4
21:20 1022 30.18 851 25.13 25.8 78.5 32 8.1 46.7
21:25 1022 30.18 851 25.13 25.7 78.3 32 7.9 46.2
21:30 1022 30.18 851 25.13 25.6 78 32 7.9 46.1
21:35 1022 30.18 851 25.13 25.4 77.6 32 7.8 46
21:40 1022 30.18 851 25.13 25.2 77.4 33 7.8 46.1
21:45 1022 30.18 851 25.13 25.2 77.3 31 7.3 45.1
21:50 1022 30.18 851 25.13 25.4 77.8 30 6.8 44.3
21:55 1022 30.18 851 25.13 25.6 78.1 30 6.8 44.2
22:00 1022 30.18 851 25.13 25.6 78.1 29 6.6 44
22:05 1022 30.18 851 25.13 25.5 77.9 29 6.5 43.7
22:10 1022 30.18 851 25.13 25.5 77.8 30 6.7 44.1
22:15 1022 30.18 851 25.13 25.3 77.6 30 6.8 44.2
22:20 1022 30.18 851 25.13 25.1 77.2 31 6.9 44.4
22:25 1022 30.18 851 25.13 25 77 30 6.4 43.6
22:30 1022 30.18 851 25.13 25 77 30 6.5 43.6
22:35 1022 30.18 851 25.13 25 77 30 6.4 43.4
22:40 1022 30.18 851 25.13 25 77 29 6.2 43.2
22:45 1022 30.18 851 25.13 25 77.1 29 6.2 43.2
22:50 1022 30.18 851 25.13 25 77.1 29 6 42.8
22:55 1022 30.18 851 25.13 25.1 77.2 29 6.1 43
23:00 1022 30.18 851 25.13 25.2 77.3 29 6 42.7
23:05 1022 30.18 851 25.13 25.2 77.3 29 6 42.7
23:10 1022 30.18 851 25.13 25.2 77.3 29 5.9 42.6
23:15 1022 30.18 851 25.13 25.3 77.6 27 5.5 41.9
23:20 1022 30.18 851 25.13 25.5 77.9 27 5.5 41.8
23:25 1022 30.18 851 25.13 25.5 78 27 5.4 41.8
23:30 1022 30.18 851 25.13 25.5 77.9 27 5.4 41.8
23:35 1022 30.18 851 25.13 25.5 77.8 27 5.6 42
23:40 1022 30.18 851 25.13 25.2 77.4 28 5.6 42.1
23:45 1022 30.18 851 25.13 25.1 77.1 28 5.3 41.5
23:50 1022 30.18 851 25.13 25.2 77.3 27 5.2 41.3
23:55 1022 30.18 851 25.13 25.1 77.3 27 5.1 41.2
24:00 1022 30.18 851 25.13 25.1 77.2 27 5.1 41.1